KGVE/GVE METAR and TAF weather

Enter ICAO airport designator
Station Type Date Time Source
KGVE METAR 2019/12/08 06:55 UTC NOAA

KGVE 080655Z AUTO 00000KT 10SM CLR M05/M05 A3048 RMK AO1 T10471051


Station Type Date Time Source
KGVE Decoded METAR 2019/12/08 06:55 UTC NOAA

Station name not available
Dec 08, 2019 - 01:55 AM EST / 2019.12.08 0655 UTC
Wind: Calm:0
Visibility: 10 mile(s):0
Sky conditions: clear
Temperature: 23.5 F (-4.7 C)
Dew Point: 22.8 F (-5.1 C)
Relative Humidity: 97%
Pressure (altimeter): 30.48 in. Hg (1032 hPa)
ob: KGVE 080655Z AUTO 00000KT 10SM CLR M05/M05 A3048 RMK AO1 T10471051
cycle: 7

Station Type Date Time Source
KGVE TAF UTC NOAA

Error!

Example: see airport list